sensor_id;sensor_type;location;lat;lon;timestamp;P1;durP1;ratioP1;P2;durP2;ratioP2
74707;SDS011;63360;50.104;8.074;2023-09-07T00:00:11;4.43;;;2.00;;
74707;SDS011;63360;50.104;8.074;2023-09-07T00:02:37;3.22;;;2.10;;
74707;SDS011;63360;50.104;8.074;2023-09-07T00:05:08;3.60;;;2.00;;
74707;SDS011;63360;50.104;8.074;2023-09-07T00:07:35;5.35;;;2.42;;
74707;SDS011;63360;50.104;8.074;2023-09-07T00:10:02;3.73;;;2.30;;
74707;SDS011;63360;50.104;8.074;2023-09-07T00:12:29;5.57;;;2.40;;
74707;SDS011;63360;50.104;8.074;2023-09-07T00:14:55;3.17;;;1.70;;
74707;SDS011;63360;50.104;8.074;2023-09-07T00:17:23;3.90;;;2.15;;
74707;SDS011;63360;50.104;8.074;2023-09-07T00:19:49;2.70;;;1.88;;
74707;SDS011;63360;50.104;8.074;2023-09-07T00:22:17;3.77;;;2.30;;
74707;SDS011;63360;50.104;8.074;2023-09-07T00:24:44;4.38;;;1.98;;
74707;SDS011;63360;50.104;8.074;2023-09-07T00:27:11;3.75;;;2.28;;
74707;SDS011;63360;50.104;8.074;2023-09-07T00:29:38;3.50;;;2.22;;
74707;SDS011;63360;50.104;8.074;2023-09-07T00:32:04;3.10;;;1.95;;
74707;SDS011;63360;50.104;8.074;2023-09-07T00:34:31;3.13;;;2.23;;
74707;SDS011;63360;50.104;8.074;2023-09-07T00:36:57;4.38;;;2.20;;
74707;SDS011;63360;50.104;8.074;2023-09-07T00:39:24;3.70;;;2.13;;
74707;SDS011;63360;50.104;8.074;2023-09-07T00:41:50;4.18;;;2.30;;
74707;SDS011;63360;50.104;8.074;2023-09-07T00:44:16;4.30;;;2.00;;
74707;SDS011;63360;50.104;8.074;2023-09-07T00:46:43;4.53;;;2.30;;
74707;SDS011;63360;50.104;8.074;2023-09-07T00:49:13;3.78;;;2.47;;
74707;SDS011;63360;50.104;8.074;2023-09-07T00:51:40;4.15;;;2.17;;
74707;SDS011;63360;50.104;8.074;2023-09-07T00:54:06;6.30;;;2.40;;
74707;SDS011;63360;50.104;8.074;2023-09-07T00:56:34;3.95;;;2.00;;
74707;SDS011;63360;50.104;8.074;2023-09-07T00:59:01;5.57;;;2.30;;
74707;SDS011;63360;50.104;8.074;2023-09-07T01:01:29;4.45;;;2.17;;
74707;SDS011;63360;50.104;8.074;2023-09-07T01:03:57;4.20;;;2.25;;
74707;SDS011;63360;50.104;8.074;2023-09-07T01:06:28;3.78;;;2.47;;
74707;SDS011;63360;50.104;8.074;2023-09-07T01:08:57;4.45;;;2.10;;
74707;SDS011;63360;50.104;8.074;2023-09-07T01:11:24;7.37;;;2.50;;
74707;SDS011;63360;50.104;8.074;2023-09-07T01:13:51;3.63;;;2.47;;
74707;SDS011;63360;50.104;8.074;2023-09-07T01:16:20;3.70;;;2.30;;
74707;SDS011;63360;50.104;8.074;2023-09-07T01:18:47;4.72;;;2.45;;
74707;SDS011;63360;50.104;8.074;2023-09-07T01:21:14;3.25;;;2.33;;
74707;SDS011;63360;50.104;8.074;2023-09-07T01:23:41;3.10;;;2.20;;
74707;SDS011;63360;50.104;8.074;2023-09-07T01:26:08;3.92;;;2.28;;
74707;SDS011;63360;50.104;8.074;2023-09-07T01:28:35;3.80;;;2.40;;
74707;SDS011;63360;50.104;8.074;2023-09-07T01:31:01;3.70;;;2.45;;
74707;SDS011;63360;50.104;8.074;2023-09-07T01:33:28;4.90;;;2.50;;
74707;SDS011;63360;50.104;8.074;2023-09-07T01:35:54;3.80;;;2.27;;
74707;SDS011;63360;50.104;8.074;2023-09-07T01:38:20;4.00;;;2.40;;
74707;SDS011;63360;50.104;8.074;2023-09-07T01:40:47;3.78;;;2.47;;
74707;SDS011;63360;50.104;8.074;2023-09-07T01:43:13;3.80;;;2.70;;
74707;SDS011;63360;50.104;8.074;2023-09-07T01:45:40;4.35;;;2.70;;
74707;SDS011;63360;50.104;8.074;2023-09-07T01:48:10;4.50;;;2.70;;
74707;SDS011;63360;50.104;8.074;2023-09-07T01:50:37;6.93;;;2.45;;
74707;SDS011;63360;50.104;8.074;2023-09-07T01:53:03;5.18;;;2.50;;
74707;SDS011;63360;50.104;8.074;2023-09-07T01:55:31;3.80;;;2.58;;
74707;SDS011;63360;50.104;8.074;2023-09-07T01:57:57;3.75;;;2.55;;
74707;SDS011;63360;50.104;8.074;2023-09-07T02:00:24;4.80;;;2.43;;
74707;SDS011;63360;50.104;8.074;2023-09-07T02:02:50;4.18;;;2.53;;
74707;SDS011;63360;50.104;8.074;2023-09-07T02:05:16;4.13;;;2.38;;
74707;SDS011;63360;50.104;8.074;2023-09-07T02:07:43;3.83;;;2.55;;
74707;SDS011;63360;50.104;8.074;2023-09-07T02:10:09;4.90;;;2.70;;
74707;SDS011;63360;50.104;8.074;2023-09-07T02:12:36;4.03;;;2.40;;
74707;SDS011;63360;50.104;8.074;2023-09-07T02:15:03;3.47;;;2.38;;
74707;SDS011;63360;50.104;8.074;2023-09-07T02:17:30;4.15;;;2.55;;
74707;SDS011;63360;50.104;8.074;2023-09-07T02:19:56;4.32;;;2.50;;
74707;SDS011;63360;50.104;8.074;2023-09-07T02:22:23;3.97;;;2.50;;
74707;SDS011;63360;50.104;8.074;2023-09-07T02:24:49;4.97;;;2.60;;
74707;SDS011;63360;50.104;8.074;2023-09-07T02:27:15;4.85;;;2.85;;
74707;SDS011;63360;50.104;8.074;2023-09-07T02:29:42;5.15;;;2.75;;
74707;SDS011;63360;50.104;8.074;2023-09-07T02:32:08;8.35;;;2.90;;
74707;SDS011;63360;50.104;8.074;2023-09-07T02:34:35;4.68;;;2.85;;
74707;SDS011;63360;50.104;8.074;2023-09-07T02:37:02;4.07;;;2.43;;
74707;SDS011;63360;50.104;8.074;2023-09-07T02:39:29;5.40;;;2.92;;
74707;SDS011;63360;50.104;8.074;2023-09-07T02:41:55;3.78;;;2.70;;
74707;SDS011;63360;50.104;8.074;2023-09-07T02:44:21;5.50;;;2.72;;
74707;SDS011;63360;50.104;8.074;2023-09-07T02:46:48;5.32;;;2.60;;
74707;SDS011;63360;50.104;8.074;2023-09-07T02:49:14;3.90;;;2.50;;
74707;SDS011;63360;50.104;8.074;2023-09-07T02:51:41;4.80;;;2.70;;
74707;SDS011;63360;50.104;8.074;2023-09-07T02:54:07;4.57;;;2.67;;
74707;SDS011;63360;50.104;8.074;2023-09-07T02:56:33;4.55;;;2.90;;
74707;SDS011;63360;50.104;8.074;2023-09-07T02:59:00;5.45;;;3.05;;
74707;SDS011;63360;50.104;8.074;2023-09-07T03:01:26;5.13;;;2.73;;
74707;SDS011;63360;50.104;8.074;2023-09-07T03:03:52;4.68;;;2.97;;
74707;SDS011;63360;50.104;8.074;2023-09-07T03:06:19;3.70;;;2.40;;
74707;SDS011;63360;50.104;8.074;2023-09-07T03:08:46;4.88;;;2.72;;
74707;SDS011;63360;50.104;8.074;2023-09-07T03:11:12;5.80;;;3.00;;
74707;SDS011;63360;50.104;8.074;2023-09-07T03:13:39;5.57;;;2.87;;
74707;SDS011;63360;50.104;8.074;2023-09-07T03:16:05;5.20;;;2.90;;
74707;SDS011;63360;50.104;8.074;2023-09-07T03:18:32;4.85;;;3.20;;
74707;SDS011;63360;50.104;8.074;2023-09-07T03:21:00;4.13;;;2.72;;
74707;SDS011;63360;50.104;8.074;2023-09-07T03:23:27;5.40;;;2.75;;
74707;SDS011;63360;50.104;8.074;2023-09-07T03:25:53;4.73;;;2.97;;
74707;SDS011;63360;50.104;8.074;2023-09-07T03:28:19;6.35;;;3.10;;
74707;SDS011;63360;50.104;8.074;2023-09-07T03:30:46;5.00;;;2.90;;
74707;SDS011;63360;50.104;8.074;2023-09-07T03:33:12;4.95;;;3.00;;
74707;SDS011;63360;50.104;8.074;2023-09-07T03:35:38;5.05;;;3.47;;
74707;SDS011;63360;50.104;8.074;2023-09-07T03:38:06;4.80;;;3.00;;
74707;SDS011;63360;50.104;8.074;2023-09-07T03:40:33;4.80;;;3.17;;
74707;SDS011;63360;50.104;8.074;2023-09-07T03:42:59;5.15;;;3.22;;
74707;SDS011;63360;50.104;8.074;2023-09-07T03:45:26;5.88;;;2.92;;
74707;SDS011;63360;50.104;8.074;2023-09-07T03:47:52;5.65;;;3.30;;
74707;SDS011;63360;50.104;8.074;2023-09-07T03:50:18;5.37;;;3.40;;
74707;SDS011;63360;50.104;8.074;2023-09-07T03:52:45;5.28;;;3.35;;
74707;SDS011;63360;50.104;8.074;2023-09-07T03:55:11;7.22;;;3.10;;
74707;SDS011;63360;50.104;8.074;2023-09-07T03:57:37;5.78;;;3.20;;
74707;SDS011;63360;50.104;8.074;2023-09-07T04:00:04;8.45;;;3.30;;
74707;SDS011;63360;50.104;8.074;2023-09-07T04:02:34;6.10;;;3.10;;
74707;SDS011;63360;50.104;8.074;2023-09-07T04:05:01;6.85;;;3.30;;
74707;SDS011;63360;50.104;8.074;2023-09-07T04:07:29;5.47;;;3.25;;
74707;SDS011;63360;50.104;8.074;2023-09-07T04:09:55;6.22;;;3.38;;
74707;SDS011;63360;50.104;8.074;2023-09-07T04:12:22;6.90;;;3.40;;
74707;SDS011;63360;50.104;8.074;2023-09-07T04:14:48;5.63;;;3.50;;
74707;SDS011;63360;50.104;8.074;2023-09-07T04:17:15;5.18;;;3.53;;
74707;SDS011;63360;50.104;8.074;2023-09-07T04:19:41;6.32;;;3.30;;
74707;SDS011;63360;50.104;8.074;2023-09-07T04:22:10;5.28;;;3.00;;
74707;SDS011;63360;50.104;8.074;2023-09-07T04:24:36;4.95;;;3.53;;
74707;SDS011;63360;50.104;8.074;2023-09-07T04:27:03;4.93;;;3.27;;
74707;SDS011;63360;50.104;8.074;2023-09-07T04:29:30;4.97;;;3.30;;
74707;SDS011;63360;50.104;8.074;2023-09-07T04:31:56;5.43;;;3.15;;
74707;SDS011;63360;50.104;8.074;2023-09-07T04:34:23;6.55;;;3.58;;
74707;SDS011;63360;50.104;8.074;2023-09-07T04:36:49;4.97;;;3.22;;
74707;SDS011;63360;50.104;8.074;2023-09-07T04:39:16;5.17;;;3.40;;
74707;SDS011;63360;50.104;8.074;2023-09-07T04:41:42;5.75;;;3.47;;
74707;SDS011;63360;50.104;8.074;2023-09-07T04:44:09;4.88;;;3.50;;
74707;SDS011;63360;50.104;8.074;2023-09-07T04:46:35;5.13;;;3.20;;
74707;SDS011;63360;50.104;8.074;2023-09-07T04:49:02;5.82;;;3.50;;
74707;SDS011;63360;50.104;8.074;2023-09-07T04:51:28;5.90;;;3.53;;
74707;SDS011;63360;50.104;8.074;2023-09-07T04:53:54;5.35;;;3.40;;
74707;SDS011;63360;50.104;8.074;2023-09-07T04:56:21;8.57;;;3.90;;
74707;SDS011;63360;50.104;8.074;2023-09-07T04:58:48;6.13;;;4.18;;
74707;SDS011;63360;50.104;8.074;2023-09-07T05:01:14;7.38;;;4.00;;
74707;SDS011;63360;50.104;8.074;2023-09-07T05:03:41;8.77;;;3.57;;
74707;SDS011;63360;50.104;8.074;2023-09-07T05:06:07;5.55;;;3.33;;
74707;SDS011;63360;50.104;8.074;2023-09-07T05:08:34;6.75;;;3.60;;
74707;SDS011;63360;50.104;8.074;2023-09-07T05:11:01;5.30;;;3.80;;
74707;SDS011;63360;50.104;8.074;2023-09-07T05:13:28;5.30;;;3.42;;
74707;SDS011;63360;50.104;8.074;2023-09-07T05:15:55;6.20;;;3.63;;
74707;SDS011;63360;50.104;8.074;2023-09-07T05:18:22;5.38;;;3.50;;
74707;SDS011;63360;50.104;8.074;2023-09-07T05:20:48;5.20;;;3.65;;
74707;SDS011;63360;50.104;8.074;2023-09-07T05:23:21;5.45;;;3.92;;
74707;SDS011;63360;50.104;8.074;2023-09-07T05:25:48;5.00;;;3.35;;
74707;SDS011;63360;50.104;8.074;2023-09-07T05:28:14;6.07;;;3.57;;
74707;SDS011;63360;50.104;8.074;2023-09-07T05:30:41;6.65;;;3.70;;
74707;SDS011;63360;50.104;8.074;2023-09-07T05:33:11;4.97;;;3.47;;
74707;SDS011;63360;50.104;8.074;2023-09-07T05:35:38;5.07;;;3.63;;
74707;SDS011;63360;50.104;8.074;2023-09-07T05:38:04;6.43;;;3.50;;
74707;SDS011;63360;50.104;8.074;2023-09-07T05:40:34;6.07;;;3.70;;
74707;SDS011;63360;50.104;8.074;2023-09-07T05:43:01;6.00;;;3.40;;
74707;SDS011;63360;50.104;8.074;2023-09-07T05:45:28;6.05;;;3.40;;
74707;SDS011;63360;50.104;8.074;2023-09-07T05:47:55;5.40;;;3.47;;
74707;SDS011;63360;50.104;8.074;2023-09-07T05:50:21;6.35;;;3.78;;
74707;SDS011;63360;50.104;8.074;2023-09-07T05:52:48;4.93;;;3.60;;
74707;SDS011;63360;50.104;8.074;2023-09-07T05:55:14;5.45;;;3.20;;
74707;SDS011;63360;50.104;8.074;2023-09-07T05:57:41;5.30;;;3.33;;
74707;SDS011;63360;50.104;8.074;2023-09-07T06:00:07;4.55;;;2.92;;
74707;SDS011;63360;50.104;8.074;2023-09-07T06:02:34;6.18;;;3.42;;
74707;SDS011;63360;50.104;8.074;2023-09-07T06:05:00;4.83;;;3.33;;
74707;SDS011;63360;50.104;8.074;2023-09-07T06:07:26;5.00;;;3.55;;
74707;SDS011;63360;50.104;8.074;2023-09-07T06:09:53;6.47;;;3.40;;
74707;SDS011;63360;50.104;8.074;2023-09-07T06:12:19;5.05;;;3.17;;
74707;SDS011;63360;50.104;8.074;2023-09-07T06:14:45;5.38;;;3.45;;
74707;SDS011;63360;50.104;8.074;2023-09-07T06:17:12;5.37;;;3.30;;
74707;SDS011;63360;50.104;8.074;2023-09-07T06:19:39;4.53;;;3.05;;
74707;SDS011;63360;50.104;8.074;2023-09-07T06:22:06;4.90;;;3.28;;
74707;SDS011;63360;50.104;8.074;2023-09-07T06:24:32;6.60;;;3.72;;
74707;SDS011;63360;50.104;8.074;2023-09-07T06:26:59;5.35;;;3.65;;
74707;SDS011;63360;50.104;8.074;2023-09-07T06:29:25;5.17;;;3.70;;
74707;SDS011;63360;50.104;8.074;2023-09-07T06:31:51;5.85;;;3.75;;
74707;SDS011;63360;50.104;8.074;2023-09-07T06:34:18;4.57;;;3.42;;
74707;SDS011;63360;50.104;8.074;2023-09-07T06:36:45;5.15;;;3.55;;
74707;SDS011;63360;50.104;8.074;2023-09-07T06:39:13;6.80;;;3.50;;
74707;SDS011;63360;50.104;8.074;2023-09-07T06:41:40;5.07;;;3.67;;
74707;SDS011;63360;50.104;8.074;2023-09-07T06:44:06;5.60;;;3.50;;
74707;SDS011;63360;50.104;8.074;2023-09-07T06:46:32;6.40;;;3.70;;
74707;SDS011;63360;50.104;8.074;2023-09-07T06:48:59;5.30;;;3.88;;
74707;SDS011;63360;50.104;8.074;2023-09-07T06:51:25;5.55;;;3.38;;
74707;SDS011;63360;50.104;8.074;2023-09-07T06:53:51;7.50;;;4.07;;
74707;SDS011;63360;50.104;8.074;2023-09-07T06:56:23;4.88;;;3.70;;
74707;SDS011;63360;50.104;8.074;2023-09-07T06:58:51;5.15;;;3.80;;
74707;SDS011;63360;50.104;8.074;2023-09-07T07:01:18;5.60;;;4.00;;
74707;SDS011;63360;50.104;8.074;2023-09-07T07:03:44;4.80;;;3.58;;
74707;SDS011;63360;50.104;8.074;2023-09-07T07:06:11;5.83;;;3.50;;
74707;SDS011;63360;50.104;8.074;2023-09-07T07:08:37;5.32;;;3.50;;
74707;SDS011;63360;50.104;8.074;2023-09-07T07:11:03;6.40;;;3.78;;
74707;SDS011;63360;50.104;8.074;2023-09-07T07:13:30;5.22;;;3.63;;
74707;SDS011;63360;50.104;8.074;2023-09-07T07:15:56;4.82;;;3.42;;
74707;SDS011;63360;50.104;8.074;2023-09-07T07:18:35;5.10;;;3.50;;
74707;SDS011;63360;50.104;8.074;2023-09-07T07:21:02;6.68;;;3.95;;
74707;SDS011;63360;50.104;8.074;2023-09-07T07:23:28;5.78;;;3.70;;
74707;SDS011;63360;50.104;8.074;2023-09-07T07:25:56;6.95;;;3.95;;
74707;SDS011;63360;50.104;8.074;2023-09-07T07:28:22;5.18;;;3.50;;
74707;SDS011;63360;50.104;8.074;2023-09-07T07:30:48;4.97;;;3.50;;
74707;SDS011;63360;50.104;8.074;2023-09-07T07:33:14;5.38;;;3.80;;
74707;SDS011;63360;50.104;8.074;2023-09-07T07:35:41;5.93;;;3.53;;
74707;SDS011;63360;50.104;8.074;2023-09-07T07:38:07;5.30;;;3.70;;
74707;SDS011;63360;50.104;8.074;2023-09-07T07:40:34;5.97;;;3.60;;
74707;SDS011;63360;50.104;8.074;2023-09-07T07:43:00;5.00;;;3.80;;
74707;SDS011;63360;50.104;8.074;2023-09-07T07:45:27;5.57;;;3.80;;
74707;SDS011;63360;50.104;8.074;2023-09-07T07:47:53;6.15;;;3.80;;
74707;SDS011;63360;50.104;8.074;2023-09-07T07:50:19;5.35;;;4.00;;
74707;SDS011;63360;50.104;8.074;2023-09-07T07:52:46;7.25;;;4.18;;
74707;SDS011;63360;50.104;8.074;2023-09-07T07:55:12;7.10;;;3.97;;
74707;SDS011;63360;50.104;8.074;2023-09-07T07:57:39;6.60;;;4.07;;
74707;SDS011;63360;50.104;8.074;2023-09-07T08:00:05;6.35;;;4.10;;
74707;SDS011;63360;50.104;8.074;2023-09-07T08:02:33;6.53;;;3.83;;
74707;SDS011;63360;50.104;8.074;2023-09-07T08:04:59;6.75;;;3.97;;
74707;SDS011;63360;50.104;8.074;2023-09-07T08:07:26;6.80;;;3.70;;
74707;SDS011;63360;50.104;8.074;2023-09-07T08:09:53;4.93;;;3.47;;
74707;SDS011;63360;50.104;8.074;2023-09-07T08:12:20;4.35;;;3.30;;
74707;SDS011;63360;50.104;8.074;2023-09-07T08:14:46;6.72;;;4.00;;
74707;SDS011;63360;50.104;8.074;2023-09-07T08:17:13;5.82;;;3.95;;
74707;SDS011;63360;50.104;8.074;2023-09-07T08:19:39;5.17;;;3.70;;
74707;SDS011;63360;50.104;8.074;2023-09-07T08:22:06;5.85;;;3.67;;
74707;SDS011;63360;50.104;8.074;2023-09-07T08:24:32;6.22;;;3.65;;
74707;SDS011;63360;50.104;8.074;2023-09-07T08:26:59;8.02;;;3.90;;
74707;SDS011;63360;50.104;8.074;2023-09-07T08:29:26;6.82;;;3.83;;
74707;SDS011;63360;50.104;8.074;2023-09-07T08:31:53;4.97;;;3.70;;
74707;SDS011;63360;50.104;8.074;2023-09-07T08:34:23;6.05;;;3.83;;
74707;SDS011;63360;50.104;8.074;2023-09-07T08:36:50;5.70;;;3.78;;
74707;SDS011;63360;50.104;8.074;2023-09-07T08:39:16;5.22;;;3.80;;
74707;SDS011;63360;50.104;8.074;2023-09-07T08:41:43;4.38;;;3.45;;
74707;SDS011;63360;50.104;8.074;2023-09-07T08:44:26;4.90;;;3.83;;
74707;SDS011;63360;50.104;8.074;2023-09-07T08:46:52;5.28;;;3.47;;
74707;SDS011;63360;50.104;8.074;2023-09-07T08:49:19;4.22;;;3.17;;
74707;SDS011;63360;50.104;8.074;2023-09-07T08:51:45;5.60;;;3.72;;
74707;SDS011;63360;50.104;8.074;2023-09-07T08:54:11;5.05;;;3.60;;
74707;SDS011;63360;50.104;8.074;2023-09-07T08:56:38;6.13;;;3.80;;
74707;SDS011;63360;50.104;8.074;2023-09-07T08:59:04;6.38;;;3.70;;
74707;SDS011;63360;50.104;8.074;2023-09-07T09:01:31;5.28;;;3.60;;
74707;SDS011;63360;50.104;8.074;2023-09-07T09:03:59;5.32;;;3.60;;
74707;SDS011;63360;50.104;8.074;2023-09-07T09:06:25;4.95;;;3.80;;
74707;SDS011;63360;50.104;8.074;2023-09-07T09:08:55;6.20;;;3.70;;
74707;SDS011;63360;50.104;8.074;2023-09-07T09:11:23;4.95;;;3.63;;
74707;SDS011;63360;50.104;8.074;2023-09-07T09:13:50;4.63;;;3.35;;
74707;SDS011;63360;50.104;8.074;2023-09-07T09:16:16;7.20;;;3.90;;
74707;SDS011;63360;50.104;8.074;2023-09-07T09:18:58;7.45;;;3.92;;
74707;SDS011;63360;50.104;8.074;2023-09-07T09:21:25;6.67;;;3.83;;
74707;SDS011;63360;50.104;8.074;2023-09-07T09:23:52;7.28;;;3.60;;
74707;SDS011;63360;50.104;8.074;2023-09-07T09:26:19;6.15;;;3.70;;
74707;SDS011;63360;50.104;8.074;2023-09-07T09:28:46;5.10;;;3.78;;
74707;SDS011;63360;50.104;8.074;2023-09-07T09:31:13;10.63;;;4.15;;
74707;SDS011;63360;50.104;8.074;2023-09-07T09:33:40;8.10;;;3.60;;
74707;SDS011;63360;50.104;8.074;2023-09-07T09:36:07;5.55;;;3.60;;
74707;SDS011;63360;50.104;8.074;2023-09-07T09:38:34;7.88;;;3.72;;
74707;SDS011;63360;50.104;8.074;2023-09-07T09:41:00;5.22;;;3.70;;
74707;SDS011;63360;50.104;8.074;2023-09-07T09:43:27;7.22;;;3.60;;
74707;SDS011;63360;50.104;8.074;2023-09-07T09:45:53;6.90;;;4.00;;
74707;SDS011;63360;50.104;8.074;2023-09-07T09:48:20;6.80;;;4.13;;
74707;SDS011;63360;50.104;8.074;2023-09-07T09:50:47;5.95;;;3.60;;
74707;SDS011;63360;50.104;8.074;2023-09-07T09:53:18;4.93;;;3.85;;
74707;SDS011;63360;50.104;8.074;2023-09-07T09:55:47;4.82;;;3.30;;
74707;SDS011;63360;50.104;8.074;2023-09-07T09:58:13;5.50;;;3.80;;
74707;SDS011;63360;50.104;8.074;2023-09-07T10:00:41;5.18;;;3.97;;
74707;SDS011;63360;50.104;8.074;2023-09-07T10:03:19;6.28;;;3.80;;
74707;SDS011;63360;50.104;8.074;2023-09-07T10:05:49;6.10;;;3.60;;
74707;SDS011;63360;50.104;8.074;2023-09-07T10:08:17;5.57;;;3.58;;
74707;SDS011;63360;50.104;8.074;2023-09-07T10:10:46;7.57;;;3.83;;
74707;SDS011;63360;50.104;8.074;2023-09-07T10:13:13;6.50;;;3.63;;
74707;SDS011;63360;50.104;8.074;2023-09-07T10:15:40;7.15;;;4.00;;
74707;SDS011;63360;50.104;8.074;2023-09-07T10:18:08;7.40;;;4.00;;
74707;SDS011;63360;50.104;8.074;2023-09-07T10:23:14;6.13;;;3.47;;
74707;SDS011;63360;50.104;8.074;2023-09-07T10:25:41;5.82;;;3.92;;
74707;SDS011;63360;50.104;8.074;2023-09-07T10:28:20;5.05;;;3.53;;
74707;SDS011;63360;50.104;8.074;2023-09-07T10:30:57;4.97;;;3.75;;
74707;SDS011;63360;50.104;8.074;2023-09-07T10:33:23;4.88;;;3.67;;
74707;SDS011;63360;50.104;8.074;2023-09-07T10:35:50;5.97;;;3.80;;
74707;SDS011;63360;50.104;8.074;2023-09-07T10:38:16;5.53;;;3.50;;
74707;SDS011;63360;50.104;8.074;2023-09-07T10:40:47;7.45;;;3.92;;
74707;SDS011;63360;50.104;8.074;2023-09-07T10:43:13;6.63;;;3.97;;
74707;SDS011;63360;50.104;8.074;2023-09-07T10:45:43;5.43;;;3.53;;
74707;SDS011;63360;50.104;8.074;2023-09-07T10:48:10;5.00;;;3.70;;
74707;SDS011;63360;50.104;8.074;2023-09-07T10:50:44;5.25;;;3.60;;
74707;SDS011;63360;50.104;8.074;2023-09-07T10:53:12;6.32;;;3.60;;
74707;SDS011;63360;50.104;8.074;2023-09-07T10:55:38;6.80;;;3.67;;
74707;SDS011;63360;50.104;8.074;2023-09-07T10:58:11;4.97;;;3.80;;
74707;SDS011;63360;50.104;8.074;2023-09-07T11:00:37;6.13;;;3.57;;
74707;SDS011;63360;50.104;8.074;2023-09-07T11:03:07;4.88;;;3.58;;
74707;SDS011;63360;50.104;8.074;2023-09-07T11:05:35;6.75;;;3.45;;
74707;SDS011;63360;50.104;8.074;2023-09-07T11:08:04;6.03;;;3.47;;
74707;SDS011;63360;50.104;8.074;2023-09-07T11:10:34;7.50;;;3.83;;
74707;SDS011;63360;50.104;8.074;2023-09-07T11:13:04;9.13;;;3.60;;
74707;SDS011;63360;50.104;8.074;2023-09-07T11:15:31;6.47;;;3.80;;
74707;SDS011;63360;50.104;8.074;2023-09-07T11:17:58;5.32;;;3.47;;
74707;SDS011;63360;50.104;8.074;2023-09-07T11:20:24;7.10;;;4.20;;
74707;SDS011;63360;50.104;8.074;2023-09-07T11:22:52;6.65;;;3.70;;
74707;SDS011;63360;50.104;8.074;2023-09-07T11:25:34;6.63;;;3.90;;
74707;SDS011;63360;50.104;8.074;2023-09-07T11:28:01;4.97;;;3.60;;
74707;SDS011;63360;50.104;8.074;2023-09-07T11:30:28;5.85;;;3.80;;
74707;SDS011;63360;50.104;8.074;2023-09-07T11:33:02;4.75;;;3.45;;
74707;SDS011;63360;50.104;8.074;2023-09-07T11:35:29;6.35;;;3.72;;
74707;SDS011;63360;50.104;8.074;2023-09-07T11:37:55;5.40;;;3.60;;
74707;SDS011;63360;50.104;8.074;2023-09-07T11:40:21;6.35;;;3.97;;
74707;SDS011;63360;50.104;8.074;2023-09-07T11:42:50;5.75;;;3.88;;
74707;SDS011;63360;50.104;8.074;2023-09-07T11:45:16;6.15;;;4.00;;
74707;SDS011;63360;50.104;8.074;2023-09-07T11:47:44;6.03;;;3.50;;
74707;SDS011;63360;50.104;8.074;2023-09-07T11:50:11;6.40;;;3.67;;
74707;SDS011;63360;50.104;8.074;2023-09-07T11:52:37;7.35;;;3.80;;
74707;SDS011;63360;50.104;8.074;2023-09-07T11:55:04;5.22;;;3.38;;
74707;SDS011;63360;50.104;8.074;2023-09-07T11:57:30;5.72;;;3.60;;
74707;SDS011;63360;50.104;8.074;2023-09-07T11:59:56;6.20;;;3.33;;
74707;SDS011;63360;50.104;8.074;2023-09-07T12:02:24;4.30;;;3.53;;
74707;SDS011;63360;50.104;8.074;2023-09-07T12:04:51;8.48;;;3.92;;
74707;SDS011;63360;50.104;8.074;2023-09-07T12:07:17;7.38;;;4.10;;
74707;SDS011;63360;50.104;8.074;2023-09-07T12:09:44;4.80;;;3.65;;
74707;SDS011;63360;50.104;8.074;2023-09-07T12:12:10;6.15;;;3.80;;
74707;SDS011;63360;50.104;8.074;2023-09-07T12:14:37;6.27;;;3.40;;
74707;SDS011;63360;50.104;8.074;2023-09-07T12:17:03;5.90;;;3.67;;
74707;SDS011;63360;50.104;8.074;2023-09-07T12:19:30;6.40;;;3.80;;
74707;SDS011;63360;50.104;8.074;2023-09-07T12:21:56;7.20;;;3.90;;
74707;SDS011;63360;50.104;8.074;2023-09-07T12:24:23;4.75;;;3.67;;
74707;SDS011;63360;50.104;8.074;2023-09-07T12:26:49;6.03;;;3.80;;
74707;SDS011;63360;50.104;8.074;2023-09-07T12:29:16;5.78;;;3.60;;
74707;SDS011;63360;50.104;8.074;2023-09-07T12:31:42;7.00;;;3.33;;
74707;SDS011;63360;50.104;8.074;2023-09-07T12:34:08;5.97;;;3.65;;
74707;SDS011;63360;50.104;8.074;2023-09-07T12:36:35;5.60;;;3.58;;
74707;SDS011;63360;50.104;8.074;2023-09-07T12:39:01;5.53;;;3.40;;
74707;SDS011;63360;50.104;8.074;2023-09-07T12:41:29;4.65;;;3.60;;
74707;SDS011;63360;50.104;8.074;2023-09-07T12:43:55;4.80;;;3.20;;
74707;SDS011;63360;50.104;8.074;2023-09-07T12:46:21;5.72;;;3.83;;
74707;SDS011;63360;50.104;8.074;2023-09-07T12:48:48;5.60;;;3.88;;
74707;SDS011;63360;50.104;8.074;2023-09-07T12:51:14;8.17;;;3.40;;
74707;SDS011;63360;50.104;8.074;2023-09-07T12:53:41;5.20;;;3.63;;
74707;SDS011;63360;50.104;8.074;2023-09-07T12:56:07;5.05;;;3.55;;
74707;SDS011;63360;50.104;8.074;2023-09-07T12:58:33;7.72;;;4.00;;
74707;SDS011;63360;50.104;8.074;2023-09-07T13:01:00;6.07;;;3.97;;
74707;SDS011;63360;50.104;8.074;2023-09-07T13:03:26;6.60;;;3.53;;
74707;SDS011;63360;50.104;8.074;2023-09-07T13:05:53;6.15;;;3.90;;
74707;SDS011;63360;50.104;8.074;2023-09-07T13:08:19;6.38;;;3.50;;
74707;SDS011;63360;50.104;8.074;2023-09-07T13:10:46;6.03;;;3.67;;
74707;SDS011;63360;50.104;8.074;2023-09-07T13:13:12;5.40;;;3.70;;
74707;SDS011;63360;50.104;8.074;2023-09-07T13:15:39;6.40;;;3.87;;
74707;SDS011;63360;50.104;8.074;2023-09-07T13:18:05;5.03;;;3.45;;
74707;SDS011;63360;50.104;8.074;2023-09-07T13:20:32;5.88;;;3.47;;
74707;SDS011;63360;50.104;8.074;2023-09-07T13:22:58;4.95;;;3.47;;
74707;SDS011;63360;50.104;8.074;2023-09-07T13:25:24;5.00;;;3.55;;
74707;SDS011;63360;50.104;8.074;2023-09-07T13:27:51;5.33;;;3.57;;
74707;SDS011;63360;50.104;8.074;2023-09-07T13:30:17;4.40;;;3.50;;
74707;SDS011;63360;50.104;8.074;2023-09-07T13:32:44;5.10;;;3.40;;
74707;SDS011;63360;50.104;8.074;2023-09-07T13:35:13;5.53;;;3.55;;
74707;SDS011;63360;50.104;8.074;2023-09-07T13:37:39;6.22;;;3.45;;
74707;SDS011;63360;50.104;8.074;2023-09-07T13:40:05;6.60;;;3.50;;
74707;SDS011;63360;50.104;8.074;2023-09-07T13:42:33;4.40;;;3.30;;
74707;SDS011;63360;50.104;8.074;2023-09-07T13:44:59;5.85;;;3.65;;
74707;SDS011;63360;50.104;8.074;2023-09-07T13:47:26;4.50;;;3.40;;
74707;SDS011;63360;50.104;8.074;2023-09-07T13:49:52;6.75;;;3.60;;
74707;SDS011;63360;50.104;8.074;2023-09-07T13:52:19;5.90;;;3.87;;
74707;SDS011;63360;50.104;8.074;2023-09-07T13:54:45;7.00;;;3.70;;
74707;SDS011;63360;50.104;8.074;2023-09-07T13:57:12;5.00;;;3.33;;
74707;SDS011;63360;50.104;8.074;2023-09-07T13:59:38;6.78;;;3.35;;
74707;SDS011;63360;50.104;8.074;2023-09-07T14:02:05;5.35;;;3.60;;
74707;SDS011;63360;50.104;8.074;2023-09-07T14:04:31;5.20;;;3.67;;
74707;SDS011;63360;50.104;8.074;2023-09-07T14:06:58;4.50;;;3.42;;
74707;SDS011;63360;50.104;8.074;2023-09-07T14:09:25;4.78;;;3.40;;
74707;SDS011;63360;50.104;8.074;2023-09-07T14:11:51;5.72;;;3.38;;
74707;SDS011;63360;50.104;8.074;2023-09-07T14:14:18;6.47;;;3.60;;
74707;SDS011;63360;50.104;8.074;2023-09-07T14:16:44;6.20;;;3.70;;
74707;SDS011;63360;50.104;8.074;2023-09-07T14:19:11;5.78;;;3.63;;
74707;SDS011;63360;50.104;8.074;2023-09-07T14:21:37;4.93;;;3.70;;
74707;SDS011;63360;50.104;8.074;2023-09-07T14:24:04;5.45;;;3.30;;
74707;SDS011;63360;50.104;8.074;2023-09-07T14:26:30;5.70;;;4.10;;
74707;SDS011;63360;50.104;8.074;2023-09-07T14:28:56;5.33;;;3.57;;
74707;SDS011;63360;50.104;8.074;2023-09-07T14:31:23;4.88;;;3.78;;
74707;SDS011;63360;50.104;8.074;2023-09-07T14:33:49;8.05;;;3.70;;
74707;SDS011;63360;50.104;8.074;2023-09-07T14:36:15;4.75;;;3.33;;
74707;SDS011;63360;50.104;8.074;2023-09-07T14:38:42;5.80;;;3.55;;
74707;SDS011;63360;50.104;8.074;2023-09-07T14:41:11;9.13;;;3.50;;
74707;SDS011;63360;50.104;8.074;2023-09-07T14:43:45;5.72;;;3.60;;
74707;SDS011;63360;50.104;8.074;2023-09-07T14:46:12;5.70;;;3.75;;
74707;SDS011;63360;50.104;8.074;2023-09-07T14:48:38;5.28;;;4.00;;